Pagina principale
METAR-TAF:

METAR-TAF

Aeroporti :

Nashua, New Hampshire, Stati Uniti

latitudine: 42-47N, longitudine: 071-31W, altezza: 61 m

Osservazione

Il bollettino è stato emesso 50 minuti fa, alle 06:56 UTC
Vento calmo
Temperature 12°C
Umidità 100%
Pressione 1017 hPa
Visibilità: 16.1 km
Cielo sereno

METAR: KASH 240656Z AUTO 00000KT 10SM CLR 12/12 A3002 RMK AO2 SLP175 T01220117

Ora: 03:46 (07:46 UTC)


TAF: mancante

Osservazioni e previsioni meteorologiche di più di 4000 aeroporti (messaggi METAR e TAF).

Le stazioni disponibili sono rappresentate dai dischi gialli e rossi sulla carta.

Puntare il mouse per vedere il nome della stazione.

Clicca sopra per visualizzare le osservazioni e previsioni meteorologiche.

Per cambiare la mappa : fare clic sui pulsanti verdi con una croce nera per ingrandire, il pulsante verde con un trattino per diminuire, o sulla freccia verde per le mappe adiacenti.


METAR-TAF: